Terminal Aerodrome Forecast
Issued by NWS Pittsburgh, PA

Current Version | Previous Version | Graphics & Text | Print | Product List | Glossary On
Versions: 1 2 3 4 5 6 7 8 9 10 11 12 13 14 15 16 17 18 19 20 21 22 23 24 25 26 27 28 29 30 31 32 33 34 35 36
013
FTUS41 KPBZ 140054 AAA
TAFPIT
TAF AMD
KPIT 140054Z 1401/1506 15007KT 1SM -SN OVC015
     FM140400 21008KT 2SM -SN OVC015
     FM140800 25008KT 3SM -SN OVC020
     FM141000 29008KT P6SM VCSH OVC015
     FM141400 32008KT P6SM BKN025
     FM141800 32008KT P6SM BKN035=

USA.gov is the U.S. government's official web portal to all federal, state and local government web resources and services.